createdAt,value
2018-02-02T00:00:25.291Z,95935.44
2018-02-02T00:02:55.829Z,95939.55
2018-02-02T00:05:24.145Z,95947.06
2018-02-02T00:07:55.056Z,95943.34
2018-02-02T00:10:23.684Z,95939.13
2018-02-02T00:12:52.249Z,95944.56
2018-02-02T00:15:20.591Z,95952.09
2018-02-02T00:17:49.687Z,95952.49
2018-02-02T00:20:18.081Z,95951.20
2018-02-02T00:22:46.475Z,95943.73
2018-02-02T00:25:14.921Z,95947.13
2018-02-02T00:27:45.201Z,95945.98
2018-02-02T00:30:15.875Z,95942.62
2018-02-02T00:32:45.171Z,95938.47
2018-02-02T00:35:13.455Z,95945.52
2018-02-02T00:37:43.490Z,95943.44
2018-02-02T00:40:11.845Z,95948.52
2018-02-02T00:42:40.253Z,95940.58
2018-02-02T00:45:10.419Z,95938.50
2018-02-02T00:47:41.665Z,95934.78
2018-02-02T00:50:11.954Z,95935.58
2018-02-02T00:52:42.026Z,95932.67
2018-02-02T00:55:13.307Z,95928.89
2018-02-02T00:57:42.733Z,95933.41
2018-02-02T01:00:11.170Z,95932.97
2018-02-02T01:02:39.498Z,95933.83
2018-02-02T01:05:07.881Z,95930.05
2018-02-02T01:07:36.229Z,95935.44
2018-02-02T01:10:04.635Z,95931.20
2018-02-02T01:12:34.687Z,95940.77
2018-02-02T01:15:04.952Z,95947.92
2018-02-02T01:17:35.687Z,95938.73
2018-02-02T01:20:05.753Z,95944.20
2018-02-02T01:22:34.114Z,95949.62
2018-02-02T01:25:03.214Z,95943.73
2018-02-02T01:27:31.509Z,95948.73
2018-02-02T01:29:59.876Z,95949.62
2018-02-02T01:32:30.709Z,95950.03
2018-02-02T01:34:58.998Z,95955.03
2018-02-02T01:37:29.059Z,95948.73
2018-02-02T01:39:59.074Z,95948.24
2018-02-02T01:42:30.062Z,95947.39
2018-02-02T01:44:59.170Z,95946.14
2018-02-02T01:47:29.118Z,95942.35
2018-02-02T01:49:59.280Z,95941.92
2018-02-02T01:52:27.624Z,95931.45
2018-02-02T01:54:55.962Z,95928.95
2018-02-02T01:57:24.281Z,95928.56
2018-02-02T01:59:52.818Z,95925.63
2018-02-02T02:02:21.138Z,95934.35
2018-02-02T02:04:51.710Z,95928.03
2018-02-02T02:07:20.038Z,95925.53
2018-02-02T02:09:50.470Z,95932.57
2018-02-02T02:12:18.848Z,95932.17
2018-02-02T02:14:49.708Z,95931.25
2018-02-02T02:17:19.673Z,95934.51
2018-02-02T02:19:48.398Z,95934.44
2018-02-02T02:22:16.770Z,95938.09
2018-02-02T02:24:45.126Z,95948.13
2018-02-02T02:27:15.276Z,95952.73
2018-02-02T02:29:43.631Z,95947.77
2018-02-02T02:32:11.959Z,95939.05
2018-02-02T02:34:43.182Z,95936.52
2018-02-02T02:37:11.533Z,95934.44
2018-02-02T02:39:42.494Z,95929.44
2018-02-02T02:42:12.462Z,95931.51
2018-02-02T02:44:40.799Z,95924.80
2018-02-02T02:47:10.828Z,95927.20
2018-02-02T02:49:39.206Z,95931.37
2018-02-02T02:52:07.601Z,95936.34
2018-02-02T02:54:37.639Z,95932.95
2018-02-02T02:57:06.824Z,95939.20
2018-02-02T02:59:36.199Z,95935.05
2018-02-02T03:02:04.574Z,95935.80
2018-02-02T03:04:32.889Z,95944.16
2018-02-02T03:07:02.844Z,95942.45
2018-02-02T03:09:31.218Z,95946.17
2018-02-02T03:11:59.504Z,95951.59
2018-02-02T03:14:29.954Z,95950.73
2018-02-02T03:16:58.997Z,95943.27
2018-02-02T03:19:28.091Z,95944.48
2018-02-02T03:21:57.213Z,95950.67
2018-02-02T03:24:27.462Z,95945.63
2018-02-02T03:27:00.038Z,95945.67
2018-02-02T03:29:28.620Z,95946.87
2018-02-02T03:31:56.958Z,95949.77
2018-02-02T03:34:27.401Z,95953.92
2018-02-02T03:36:56.488Z,95958.84
2018-02-02T03:39:24.779Z,95965.95
2018-02-02T03:41:53.092Z,95963.06
2018-02-02T03:44:21.433Z,95966.77
2018-02-02T03:46:50.528Z,95974.70
2018-02-02T03:49:18.838Z,95976.03
2018-02-02T03:51:47.191Z,95984.78
2018-02-02T03:54:15.552Z,95982.67
2018-02-02T03:56:45.690Z,95980.56
2018-02-02T03:59:14.089Z,95978.84
2018-02-02T04:01:45.051Z,95978.84
2018-02-02T04:04:13.503Z,95982.91
2018-02-02T04:06:41.957Z,95987.48
2018-02-02T04:09:10.311Z,95986.70
2018-02-02T04:11:39.363Z,95989.23
2018-02-02T04:14:07.729Z,95985.88
2018-02-02T04:16:36.037Z,95988.27
2018-02-02T04:19:06.124Z,95991.13
2018-02-02T04:21:34.441Z,95990.16
2018-02-02T04:24:04.327Z,95995.16
2018-02-02T04:26:32.699Z,95990.59
2018-02-02T04:29:02.497Z,95991.87
2018-02-02T04:31:32.587Z,95996.02
2018-02-02T04:34:00.965Z,95998.98
2018-02-02T04:36:30.047Z,95994.84
2018-02-02T04:38:58.573Z,95999.48
2018-02-02T04:41:27.728Z,95996.12
2018-02-02T04:43:57.835Z,95993.27
2018-02-02T04:46:26.939Z,95999.56
2018-02-02T04:48:55.263Z,95997.09
2018-02-02T04:51:23.567Z,95999.20
2018-02-02T04:53:52.035Z,96005.41
2018-02-02T04:56:22.535Z,96014.59
2018-02-02T04:58:53.879Z,96006.27
2018-02-02T05:01:22.261Z,96004.67
2018-02-02T05:03:50.622Z,96003.42
2018-02-02T05:06:21.087Z,96000.92
2018-02-02T05:08:50.916Z,96004.23
2018-02-02T05:11:22.369Z,96010.88
2018-02-02T05:13:52.473Z,96008.77
2018-02-02T05:16:20.863Z,96015.06
2018-02-02T05:18:49.279Z,96005.88
2018-02-02T05:21:17.604Z,96009.16
2018-02-02T05:23:46.031Z,96008.70
2018-02-02T05:26:16.222Z,96014.13
2018-02-02T05:28:45.515Z,96004.16
2018-02-02T05:31:15.571Z,96010.02
2018-02-02T05:33:44.009Z,96020.02
2018-02-02T05:36:12.576Z,96017.52
2018-02-02T05:38:40.950Z,96006.23
2018-02-02T05:41:11.087Z,96007.52
2018-02-02T05:43:39.794Z,96013.27
2018-02-02T05:46:09.863Z,96006.95
2018-02-02T05:48:38.213Z,96004.80
2018-02-02T05:51:07.305Z,96005.19
2018-02-02T05:53:35.614Z,96001.80
2018-02-02T05:56:07.039Z,96003.87
2018-02-02T05:58:35.517Z,96009.76
2018-02-02T06:01:03.931Z,96004.33
2018-02-02T06:03:33.867Z,96005.94
2018-02-02T06:06:04.719Z,96015.08
2018-02-02T06:08:33.893Z,96006.22
2018-02-02T06:11:03.085Z,96015.75
2018-02-02T06:13:31.416Z,96016.64
2018-02-02T06:15:59.801Z,96015.39
2018-02-02T06:18:29.909Z,96009.96
2018-02-02T06:21:00.159Z,96011.99
2018-02-02T06:23:30.957Z,96017.34
2018-02-02T06:25:59.297Z,96018.63
2018-02-02T06:28:29.257Z,96024.38
2018-02-02T06:30:57.666Z,96018.09
2018-02-02T06:33:25.977Z,96018.12
2018-02-02T06:35:54.391Z,96022.70
2018-02-02T06:38:23.473Z,96021.80
2018-02-02T06:40:55.029Z,96017.23
2018-02-02T06:43:23.383Z,96018.88
2018-02-02T06:45:51.761Z,96002.20
2018-02-02T06:48:20.113Z,96017.63
2018-02-02T06:50:48.532Z,96014.34
2018-02-02T06:53:16.877Z,96020.20
2018-02-02T06:55:46.319Z,96025.16
2018-02-02T06:58:15.754Z,96025.55
2018-02-02T07:00:44.232Z,96033.91
2018-02-02T07:03:14.413Z,96033.09
2018-02-02T07:05:42.855Z,96038.52
2018-02-02T07:08:13.036Z,96044.76
2018-02-02T07:10:43.086Z,96050.14
2018-02-02T07:13:11.503Z,96053.55
2018-02-02T07:15:42.435Z,96051.36
2018-02-02T07:18:10.802Z,96057.53
2018-02-02T07:20:39.280Z,96059.63
2018-02-02T07:23:09.288Z,96059.25
2018-02-02T07:25:37.775Z,96067.64
2018-02-02T07:28:07.865Z,96065.09
2018-02-02T07:30:38.012Z,96058.42
2018-02-02T07:33:06.425Z,96065.61
2018-02-02T07:35:35.601Z,96063.54
2018-02-02T07:38:04.995Z,96063.19
2018-02-02T07:40:34.803Z,96067.37
2018-02-02T07:43:03.125Z,96071.98
2018-02-02T07:45:34.165Z,96069.56
2018-02-02T07:48:04.437Z,96070.84
2018-02-02T07:50:35.646Z,96065.49
2018-02-02T07:53:04.112Z,96068.42
2018-02-02T07:55:36.383Z,96070.97
2018-02-02T07:58:04.680Z,96071.52
2018-02-02T08:00:39.752Z,96075.37
2018-02-02T08:03:10.822Z,96067.87
2018-02-02T08:05:40.216Z,96070.95
2018-02-02T08:08:11.252Z,96074.39
2018-02-02T08:10:39.643Z,96074.94
2018-02-02T08:13:09.476Z,96072.91
2018-02-02T08:15:39.646Z,96074.12
2018-02-02T08:18:09.834Z,96070.83
2018-02-02T08:20:38.179Z,96076.63
2018-02-02T08:23:07.527Z,96069.59
2018-02-02T08:25:35.870Z,96072.62
2018-02-02T08:28:06.020Z,96071.02
2018-02-02T08:30:37.044Z,96078.32
2018-02-02T08:33:05.472Z,96077.25
2018-02-02T08:35:33.903Z,96076.78
2018-02-02T08:38:04.036Z,96075.69
2018-02-02T08:40:33.136Z,96078.15
2018-02-02T08:43:01.724Z,96075.72
2018-02-02T08:45:32.623Z,96079.08
2018-02-02T08:48:06.336Z,96080.95
2018-02-02T08:50:35.978Z,96082.27
2018-02-02T08:53:04.349Z,96084.92
2018-02-02T08:55:34.406Z,96085.09
2018-02-02T08:58:02.766Z,96080.20
2018-02-02T09:00:31.758Z,96092.42
2018-02-02T09:03:04.394Z,96087.95
2018-02-02T09:05:32.751Z,96083.77
2018-02-02T09:08:01.097Z,96089.59
2018-02-02T09:10:29.455Z,96090.53
2018-02-02T09:12:57.951Z,96086.81
2018-02-02T09:15:26.953Z,96088.92
2018-02-02T09:17:57.678Z,96098.64
2018-02-02T09:20:26.783Z,96095.78
2018-02-02T09:22:55.289Z,96098.84
2018-02-02T09:25:25.454Z,96100.63
2018-02-02T09:27:53.352Z,96103.14
2018-02-02T09:30:21.822Z,96101.16
2018-02-02T09:32:50.191Z,96100.41
2018-02-02T09:35:18.656Z,96104.70
2018-02-02T09:37:47.010Z,96107.34
2018-02-02T09:40:15.860Z,96115.67
2018-02-02T09:42:44.276Z,96112.81
2018-02-02T09:45:14.332Z,96116.83
2018-02-02T09:47:42.784Z,96123.69
2018-02-02T09:50:11.120Z,96124.84
2018-02-02T09:52:39.544Z,96119.84
2018-02-02T09:55:09.493Z,96119.11
2018-02-02T09:57:37.893Z,96113.80
2018-02-02T10:00:06.292Z,96117.69
2018-02-02T10:02:34.807Z,96114.33
2018-02-02T10:05:04.008Z,96124.97
2018-02-02T10:07:32.395Z,96122.80
2018-02-02T10:10:00.771Z,96119.47
2018-02-02T10:12:29.174Z,96122.13
2018-02-02T10:14:57.684Z,96120.98
2018-02-02T10:17:26.054Z,96116.13
2018-02-02T10:19:54.338Z,96117.47
2018-02-02T10:22:22.934Z,96120.31
2018-02-02T10:24:51.378Z,96113.77
2018-02-02T10:27:19.696Z,96119.86
2018-02-02T10:29:48.042Z,96113.33
2018-02-02T10:32:17.992Z,96116.33
2018-02-02T10:34:46.377Z,96119.27
2018-02-02T10:37:17.358Z,96115.53
2018-02-02T10:39:45.820Z,96116.67
2018-02-02T10:42:14.214Z,96109.66
2018-02-02T10:44:44.766Z,96108.15
2018-02-02T10:47:13.067Z,96112.05
2018-02-02T10:49:41.906Z,96104.27
2018-02-02T10:52:10.350Z,96107.20
2018-02-02T10:54:40.446Z,96094.27
2018-02-02T10:57:10.828Z,96087.65
2018-02-02T10:59:41.752Z,96085.66
2018-02-02T11:02:15.698Z,96083.14
2018-02-02T11:04:44.009Z,96085.25
2018-02-02T11:07:13.106Z,96081.31
2018-02-02T11:09:41.482Z,96075.16
2018-02-02T11:12:09.961Z,96078.18
2018-02-02T11:14:42.509Z,96079.41
2018-02-02T11:17:10.951Z,96080.69
2018-02-02T11:19:39.394Z,96079.55
2018-02-02T11:22:07.774Z,96074.06
2018-02-02T11:24:36.145Z,96075.16
2018-02-02T11:27:04.540Z,96071.48
2018-02-02T11:29:32.929Z,96064.75
2018-02-02T11:32:03.504Z,96062.22
2018-02-02T11:34:31.883Z,96056.66
2018-02-02T11:37:00.241Z,96058.91
2018-02-02T11:39:28.524Z,96055.20
2018-02-02T11:41:56.849Z,96046.92
2018-02-02T11:44:25.193Z,96050.39
2018-02-02T11:46:53.464Z,96049.19
2018-02-02T11:49:21.820Z,96045.48
2018-02-02T11:51:50.200Z,96037.58
2018-02-02T11:54:20.466Z,96039.70
2018-02-02T11:56:51.257Z,96037.30
2018-02-02T11:59:21.111Z,96025.43
2018-02-02T12:01:49.661Z,96024.47
2018-02-02T12:04:18.033Z,96022.02
2018-02-02T12:06:46.454Z,96017.13
2018-02-02T12:09:14.834Z,96010.44
2018-02-02T12:11:46.701Z,96015.61
2018-02-02T12:14:15.021Z,96007.18
2018-02-02T12:16:43.353Z,96014.73
2018-02-02T12:19:11.841Z,96014.36
2018-02-02T12:21:42.478Z,96010.72
2018-02-02T12:24:22.552Z,96013.28
2018-02-02T12:26:57.142Z,96006.28
2018-02-02T12:29:26.151Z,95996.03
2018-02-02T12:31:55.238Z,95995.22
2018-02-02T12:34:25.474Z,95995.22
2018-02-02T12:36:53.829Z,96001.20
2018-02-02T12:39:24.723Z,96002.58
2018-02-02T12:41:53.308Z,95999.69
2018-02-02T12:44:21.735Z,96005.92
2018-02-02T12:46:51.972Z,95999.16
2018-02-02T12:49:34.322Z,95997.98
2018-02-02T12:52:06.126Z,95998.86
2018-02-02T12:54:37.995Z,95995.53
2018-02-02T12:57:08.819Z,95991.92
2018-02-02T12:59:38.235Z,95990.81
2018-02-02T13:02:06.829Z,95992.05
2018-02-02T13:04:37.763Z,95983.55
2018-02-02T13:07:06.277Z,95991.48
2018-02-02T13:09:34.645Z,95996.06
2018-02-02T13:12:03.075Z,95994.81
2018-02-02T13:14:31.567Z,95987.22
2018-02-02T13:17:00.144Z,95984.69
2018-02-02T13:19:31.120Z,95988.40
2018-02-02T13:22:01.045Z,95979.25
2018-02-02T13:24:29.994Z,95985.08
2018-02-02T13:26:58.374Z,95984.64
2018-02-02T13:29:27.529Z,95986.16
2018-02-02T13:31:58.827Z,95982.29
2018-02-02T13:34:29.047Z,95985.98
2018-02-02T13:36:58.132Z,95984.70
2018-02-02T13:39:26.509Z,95981.34
2018-02-02T13:41:56.172Z,95985.58
2018-02-02T13:44:27.480Z,95974.81
2018-02-02T13:46:56.048Z,95974.20
2018-02-02T13:49:25.513Z,95976.48
2018-02-02T13:51:55.636Z,95984.98
2018-02-02T13:54:24.274Z,95985.89
2018-02-02T13:56:52.758Z,95989.22
2018-02-02T13:59:21.164Z,95995.96
2018-02-02T14:01:49.518Z,95998.52
2018-02-02T14:04:19.647Z,95991.81
2018-02-02T14:06:48.107Z,95998.86
2018-02-02T14:09:17.452Z,95993.34
2018-02-02T14:11:47.745Z,95996.67
2018-02-02T14:14:17.012Z,95997.16
2018-02-02T14:16:48.170Z,95989.66
2018-02-02T14:19:16.530Z,95984.70
2018-02-02T14:21:46.374Z,95988.49
2018-02-02T14:24:14.820Z,95995.24
2018-02-02T14:26:45.995Z,95992.70
2018-02-02T14:29:14.646Z,96001.14
2018-02-02T14:31:45.702Z,96001.58
2018-02-02T14:34:14.206Z,96004.53
2018-02-02T14:36:42.675Z,96009.88
2018-02-02T14:39:11.074Z,96012.63
2018-02-02T14:41:39.446Z,96013.39
2018-02-02T14:44:09.483Z,96010.72
2018-02-02T14:46:39.632Z,96008.12
2018-02-02T14:49:08.159Z,96006.28
2018-02-02T14:51:37.396Z,96006.61
2018-02-02T14:54:06.084Z,96008.77
2018-02-02T14:56:35.683Z,96001.23
2018-02-02T14:59:05.296Z,96002.02
2018-02-02T15:01:34.879Z,96002.85
2018-02-02T15:04:05.405Z,96009.48
2018-02-02T15:06:39.222Z,96002.00
2018-02-02T15:09:11.572Z,96006.97
2018-02-02T15:11:39.954Z,96006.67
2018-02-02T15:14:08.359Z,96009.18
2018-02-02T15:16:36.708Z,96005.86
2018-02-02T15:19:06.971Z,96019.74
2018-02-02T15:21:36.713Z,96008.86
2018-02-02T15:24:09.475Z,96005.73
2018-02-02T15:26:37.834Z,96004.80
2018-02-02T15:29:08.390Z,96014.30
2018-02-02T15:31:37.434Z,96015.78
2018-02-02T15:34:06.273Z,96019.91
2018-02-02T15:36:37.219Z,96020.68
2018-02-02T15:39:07.729Z,96023.92
2018-02-02T15:41:38.620Z,96020.51
2018-02-02T15:44:07.001Z,96023.83
2018-02-02T15:46:39.250Z,96024.14
2018-02-02T15:49:10.205Z,96034.05
2018-02-02T15:51:38.947Z,96025.70
2018-02-02T15:54:07.477Z,96027.76
2018-02-02T15:56:35.937Z,96028.10
2018-02-02T15:59:05.361Z,96025.91
2018-02-02T16:01:33.931Z,96036.67
2018-02-02T16:06:37.584Z,96019.80
2018-02-02T16:09:07.836Z,96019.69
2018-02-02T16:11:38.948Z,96020.87
2018-02-02T16:14:10.065Z,96022.49
2018-02-02T16:16:40.579Z,96054.16
2018-02-02T16:19:11.497Z,96024.46
2018-02-02T16:21:40.963Z,96021.48
2018-02-02T16:24:09.303Z,96017.63
2018-02-02T16:26:37.650Z,96018.80
2018-02-02T16:29:08.797Z,96018.31
2018-02-02T16:31:37.951Z,96024.41
2018-02-02T16:34:09.821Z,96028.17
2018-02-02T16:36:39.456Z,96030.13
2018-02-02T16:39:09.885Z,96039.73
2018-02-02T16:41:40.863Z,96027.05
2018-02-02T16:44:12.237Z,96037.59
2018-02-02T16:46:41.330Z,96041.72
2018-02-02T16:49:11.671Z,96035.42
2018-02-02T16:51:43.953Z,96036.25
2018-02-02T16:54:12.742Z,96034.99
2018-02-02T16:56:41.140Z,96044.20
2018-02-02T16:59:09.549Z,96047.53
2018-02-02T17:01:37.870Z,96043.77
2018-02-02T17:04:07.731Z,96045.87
2018-02-02T17:06:36.480Z,96042.52
2018-02-02T17:09:05.209Z,96038.36
2018-02-02T17:11:33.602Z,96042.09
2018-02-02T17:14:04.627Z,96043.34
2018-02-02T17:16:35.807Z,96044.98
2018-02-02T17:19:05.372Z,96051.26
2018-02-02T17:21:33.906Z,96052.52
2018-02-02T17:24:02.240Z,96058.34
2018-02-02T17:26:30.675Z,96052.87
2018-02-02T17:28:58.985Z,96049.09
2018-02-02T17:31:27.563Z,96052.45
2018-02-02T17:33:56.997Z,96052.78
2018-02-02T17:36:28.195Z,96049.91
2018-02-02T17:38:56.772Z,96050.73
2018-02-02T17:41:26.287Z,96047.38
2018-02-02T17:43:56.639Z,96040.28
2018-02-02T17:46:27.981Z,96034.42
2018-02-02T17:48:58.326Z,96032.73
2018-02-02T17:51:30.339Z,96038.17
2018-02-02T17:53:58.681Z,96037.35
2018-02-02T17:56:27.245Z,96051.53
2018-02-02T17:58:58.065Z,96041.91
2018-02-02T18:04:29.187Z,96051.90
2018-02-02T18:07:00.844Z,96050.62
2018-02-02T18:09:29.229Z,96064.00
2018-02-02T18:11:59.310Z,96061.47
2018-02-02T18:14:27.720Z,96064.80
2018-02-02T18:17:00.372Z,96058.53
2018-02-02T18:19:29.539Z,96059.36
2018-02-02T18:21:57.934Z,96058.07
2018-02-02T18:24:26.705Z,96049.70
2018-02-02T18:26:59.113Z,96053.48
2018-02-02T18:29:30.148Z,96053.09
2018-02-02T18:32:02.301Z,96059.78
2018-02-02T18:34:32.188Z,96060.21
2018-02-02T18:37:00.651Z,96066.48
2018-02-02T18:39:29.160Z,96074.42
2018-02-02T18:41:58.366Z,96075.25
2018-02-02T18:44:27.526Z,96072.34
2018-02-02T18:46:57.169Z,96076.05
2018-02-02T18:49:25.748Z,96077.72
2018-02-02T18:51:54.430Z,96075.19
2018-02-02T18:54:23.040Z,96081.02
2018-02-02T18:56:51.390Z,96088.51
2018-02-02T18:59:21.491Z,96092.70
2018-02-02T19:01:50.442Z,96088.51
2018-02-02T19:04:20.947Z,96082.21
2018-02-02T19:06:49.712Z,96087.62
2018-02-02T19:09:19.889Z,96086.77
2018-02-02T19:11:49.060Z,96096.82
2018-02-02T19:14:21.698Z,96092.20
2018-02-02T19:16:51.940Z,96094.71
2018-02-02T19:19:21.634Z,96092.60
2018-02-02T19:21:52.191Z,96103.09
2018-02-02T19:24:21.543Z,96098.89
2018-02-02T19:26:50.077Z,96088.88
2018-02-02T19:29:21.384Z,96081.33
2018-02-02T19:31:50.558Z,96082.12
2018-02-02T19:34:19.452Z,96082.97
2018-02-02T19:36:52.088Z,96084.20
2018-02-02T19:39:20.708Z,96078.75
2018-02-02T19:41:49.225Z,96074.56
2018-02-02T19:44:17.900Z,96070.81
2018-02-02T19:46:48.282Z,96071.20
2018-02-02T19:49:16.795Z,96068.24
2018-02-02T19:51:45.223Z,96068.21
2018-02-02T19:54:16.403Z,96065.27
2018-02-02T19:56:46.700Z,96063.59
2018-02-02T19:59:19.455Z,96061.06
2018-02-02T20:01:52.120Z,96071.48
2018-02-02T20:04:22.817Z,96071.02
2018-02-02T20:06:51.231Z,96073.09
2018-02-02T20:09:21.435Z,96070.95
2018-02-02T20:11:50.246Z,96071.80
2018-02-02T20:14:18.687Z,96076.78
2018-02-02T20:16:48.372Z,96075.11
2018-02-02T20:19:17.646Z,96079.26
2018-02-02T20:21:47.267Z,96076.75
2018-02-02T20:24:15.956Z,96073.00
2018-02-02T20:26:46.116Z,96067.92
2018-02-02T20:29:15.609Z,96068.74
2018-02-02T20:31:44.362Z,96071.67
2018-02-02T20:34:13.100Z,96064.59
2018-02-02T20:36:43.184Z,96065.81
2018-02-02T20:39:15.043Z,96069.57
2018-02-02T20:41:44.540Z,96062.88
2018-02-02T20:44:15.751Z,96067.86
2018-02-02T20:46:44.498Z,96068.25
2018-02-02T20:49:14.695Z,96067.00
2018-02-02T20:51:46.010Z,96076.16
2018-02-02T20:54:16.820Z,96075.34
2018-02-02T20:56:46.022Z,96074.91
2018-02-02T20:59:16.409Z,96074.48
2018-02-02T21:01:47.357Z,96075.30
2018-02-02T21:04:17.636Z,96081.56
2018-02-02T21:06:49.678Z,96083.25
2018-02-02T21:09:18.912Z,96085.36
2018-02-02T21:11:47.311Z,96082.00
2018-02-02T21:14:17.046Z,96092.02
2018-02-02T21:16:45.407Z,96091.98
2018-02-02T21:19:16.356Z,96090.73
2018-02-02T21:21:46.805Z,96104.50
2018-02-02T21:24:19.400Z,96113.27
2018-02-02T21:26:49.646Z,96106.98
2018-02-02T21:29:24.735Z,96104.90
2018-02-02T21:31:54.032Z,96109.88
2018-02-02T21:34:22.640Z,96103.58
2018-02-02T21:36:52.788Z,96116.50
2018-02-02T21:39:22.797Z,96111.06
2018-02-02T21:41:52.971Z,96112.70
2018-02-02T21:44:21.343Z,96098.86
2018-02-02T21:46:50.567Z,96108.55
2018-02-02T21:49:18.947Z,96099.33
2018-02-02T21:51:50.024Z,96105.16
2018-02-02T21:54:20.585Z,96106.02
2018-02-02T21:56:50.735Z,96110.20
2018-02-02T21:59:19.367Z,96110.59
2018-02-02T22:01:47.735Z,96117.69
2018-02-02T22:04:17.023Z,96115.14
2018-02-02T22:06:48.284Z,96114.75
2018-02-02T22:09:18.405Z,96111.81
2018-02-02T22:11:51.124Z,96115.54
2018-02-02T22:14:21.068Z,96113.86
2018-02-02T22:16:49.502Z,96121.01
2018-02-02T22:19:21.976Z,96115.54
2018-02-02T22:21:52.036Z,96120.55
2018-02-02T22:24:21.257Z,96115.94
2018-02-02T22:26:51.434Z,96116.30
2018-02-02T22:31:54.518Z,96121.73
2018-02-02T22:34:28.065Z,96115.01
2018-02-02T22:36:58.312Z,96119.19
2018-02-02T22:39:26.763Z,96124.20
2018-02-02T22:41:56.671Z,96121.66
2018-02-02T22:44:25.912Z,96122.06
2018-02-02T22:46:55.097Z,96119.55
2018-02-02T22:49:24.135Z,96119.16
2018-02-02T22:51:52.497Z,96114.15
2018-02-02T22:54:20.826Z,96114.52
2018-02-02T22:56:49.552Z,96113.69
2018-02-02T22:59:19.756Z,96116.66
2018-02-02T23:01:50.103Z,96114.58
2018-02-02T23:04:22.285Z,96116.69
2018-02-02T23:06:52.703Z,96118.30
2018-02-02T23:09:23.752Z,96117.88
2018-02-02T23:11:55.104Z,96117.44
2018-02-02T23:14:25.343Z,96122.05
2018-02-02T23:16:57.062Z,96119.09
2018-02-02T23:19:26.414Z,96121.20
2018-02-02T23:21:56.670Z,96116.59
2018-02-02T23:24:26.761Z,96119.95
2018-02-02T23:26:55.208Z,96110.36
2018-02-02T23:29:24.313Z,96108.71
2018-02-02T23:31:53.672Z,96106.20
2018-02-02T23:34:22.988Z,96106.56
2018-02-02T23:36:52.187Z,96106.17
2018-02-02T23:39:20.589Z,96101.16
2018-02-02T23:41:50.788Z,96096.19
2018-02-02T23:44:22.348Z,96095.77
2018-02-02T23:46:50.909Z,96096.55
2018-02-02T23:49:21.810Z,96094.51
2018-02-02T23:51:52.029Z,96088.25
2018-02-02T23:54:22.203Z,96087.79
2018-02-02T23:56:53.231Z,96081.95
2018-02-02T23:59:22.743Z,96081.09
